sensor_id;sensor_type;location;lat;lon;timestamp;P1;durP1;ratioP1;P2;durP2;ratioP2
2289;SDS011;1153;47.986;7.898;2022-12-07T00:01:10;15.47;;;9.50;;
2289;SDS011;1153;47.986;7.898;2022-12-07T00:03:36;15.17;;;9.90;;
2289;SDS011;1153;47.986;7.898;2022-12-07T00:06:01;16.77;;;9.97;;
2289;SDS011;1153;47.986;7.898;2022-12-07T00:08:27;17.23;;;10.30;;
2289;SDS011;1153;47.986;7.898;2022-12-07T00:10:52;12.20;;;9.50;;
2289;SDS011;1153;47.986;7.898;2022-12-07T00:13:17;20.97;;;11.33;;
2289;SDS011;1153;47.986;7.898;2022-12-07T00:15:43;16.30;;;11.00;;
2289;SDS011;1153;47.986;7.898;2022-12-07T00:18:08;14.40;;;10.73;;
2289;SDS011;1153;47.986;7.898;2022-12-07T00:20:33;17.20;;;10.90;;
2289;SDS011;1153;47.986;7.898;2022-12-07T00:22:59;17.93;;;10.90;;
2289;SDS011;1153;47.986;7.898;2022-12-07T00:25:24;25.27;;;11.37;;
2289;SDS011;1153;47.986;7.898;2022-12-07T00:27:49;13.80;;;9.30;;
2289;SDS011;1153;47.986;7.898;2022-12-07T00:30:15;19.37;;;12.10;;
2289;SDS011;1153;47.986;7.898;2022-12-07T00:32:40;25.30;;;12.63;;
2289;SDS011;1153;47.986;7.898;2022-12-07T00:35:05;23.60;;;10.97;;
2289;SDS011;1153;47.986;7.898;2022-12-07T00:37:30;17.30;;;11.50;;
2289;SDS011;1153;47.986;7.898;2022-12-07T00:39:55;18.93;;;11.30;;
2289;SDS011;1153;47.986;7.898;2022-12-07T00:42:21;16.10;;;11.40;;
2289;SDS011;1153;47.986;7.898;2022-12-07T00:44:46;14.60;;;10.33;;
2289;SDS011;1153;47.986;7.898;2022-12-07T00:47:11;20.50;;;11.03;;
2289;SDS011;1153;47.986;7.898;2022-12-07T00:49:36;18.17;;;10.37;;
2289;SDS011;1153;47.986;7.898;2022-12-07T00:52:01;14.17;;;10.17;;
2289;SDS011;1153;47.986;7.898;2022-12-07T00:54:27;24.03;;;11.23;;
2289;SDS011;1153;47.986;7.898;2022-12-07T00:56:52;13.50;;;9.83;;
2289;SDS011;1153;47.986;7.898;2022-12-07T00:59:17;16.20;;;10.47;;
2289;SDS011;1153;47.986;7.898;2022-12-07T01:01:42;17.80;;;10.00;;
2289;SDS011;1153;47.986;7.898;2022-12-07T01:04:07;16.50;;;10.17;;
2289;SDS011;1153;47.986;7.898;2022-12-07T01:06:33;14.30;;;11.20;;
2289;SDS011;1153;47.986;7.898;2022-12-07T01:08:58;17.13;;;10.87;;
2289;SDS011;1153;47.986;7.898;2022-12-07T01:11:25;19.37;;;12.20;;
2289;SDS011;1153;47.986;7.898;2022-12-07T01:13:51;15.37;;;9.60;;
2289;SDS011;1153;47.986;7.898;2022-12-07T01:16:17;18.43;;;10.73;;
2289;SDS011;1153;47.986;7.898;2022-12-07T01:18:42;17.87;;;9.67;;
2289;SDS011;1153;47.986;7.898;2022-12-07T01:21:10;14.83;;;9.90;;
2289;SDS011;1153;47.986;7.898;2022-12-07T01:23:36;13.20;;;10.40;;
2289;SDS011;1153;47.986;7.898;2022-12-07T01:26:03;17.40;;;10.37;;
2289;SDS011;1153;47.986;7.898;2022-12-07T01:28:29;22.70;;;11.33;;
2289;SDS011;1153;47.986;7.898;2022-12-07T01:30:57;18.87;;;11.40;;
2289;SDS011;1153;47.986;7.898;2022-12-07T01:33:23;18.63;;;10.70;;
2289;SDS011;1153;47.986;7.898;2022-12-07T01:35:49;16.00;;;9.67;;
2289;SDS011;1153;47.986;7.898;2022-12-07T01:38:14;15.00;;;9.43;;
2289;SDS011;1153;47.986;7.898;2022-12-07T01:40:39;20.03;;;11.30;;
2289;SDS011;1153;47.986;7.898;2022-12-07T01:43:09;23.77;;;9.63;;
2289;SDS011;1153;47.986;7.898;2022-12-07T01:45:41;17.30;;;10.30;;
2289;SDS011;1153;47.986;7.898;2022-12-07T01:48:07;18.03;;;11.47;;
2289;SDS011;1153;47.986;7.898;2022-12-07T01:50:34;13.97;;;10.63;;
2289;SDS011;1153;47.986;7.898;2022-12-07T01:53:00;16.77;;;10.00;;
2289;SDS011;1153;47.986;7.898;2022-12-07T01:55:27;21.00;;;9.70;;
2289;SDS011;1153;47.986;7.898;2022-12-07T01:57:52;14.30;;;9.83;;
2289;SDS011;1153;47.986;7.898;2022-12-07T02:00:18;16.70;;;9.73;;
2289;SDS011;1153;47.986;7.898;2022-12-07T02:02:55;21.73;;;11.20;;
2289;SDS011;1153;47.986;7.898;2022-12-07T02:05:20;23.47;;;10.00;;
2289;SDS011;1153;47.986;7.898;2022-12-07T02:07:47;16.40;;;10.10;;
2289;SDS011;1153;47.986;7.898;2022-12-07T02:12:38;16.20;;;11.07;;
2289;SDS011;1153;47.986;7.898;2022-12-07T02:15:03;17.30;;;10.80;;
2289;SDS011;1153;47.986;7.898;2022-12-07T02:17:30;18.17;;;11.50;;
2289;SDS011;1153;47.986;7.898;2022-12-07T02:25:13;24.63;;;12.87;;
2289;SDS011;1153;47.986;7.898;2022-12-07T02:30:26;25.53;;;13.40;;
2289;SDS011;1153;47.986;7.898;2022-12-07T02:32:55;31.87;;;14.70;;
2289;SDS011;1153;47.986;7.898;2022-12-07T02:35:24;31.50;;;15.50;;
2289;SDS011;1153;47.986;7.898;2022-12-07T02:43:23;30.73;;;16.20;;
2289;SDS011;1153;47.986;7.898;2022-12-07T02:45:46;37.57;;;16.80;;
2289;SDS011;1153;47.986;7.898;2022-12-07T02:48:13;32.83;;;17.80;;
2289;SDS011;1153;47.986;7.898;2022-12-07T02:50:38;36.10;;;17.13;;
2289;SDS011;1153;47.986;7.898;2022-12-07T02:53:03;34.03;;;16.53;;
2289;SDS011;1153;47.986;7.898;2022-12-07T02:55:30;29.70;;;16.97;;
2289;SDS011;1153;47.986;7.898;2022-12-07T02:58:16;32.80;;;16.47;;
2289;SDS011;1153;47.986;7.898;2022-12-07T03:00:48;34.93;;;15.70;;
2289;SDS011;1153;47.986;7.898;2022-12-07T03:03:15;35.90;;;16.50;;
2289;SDS011;1153;47.986;7.898;2022-12-07T03:06:05;32.20;;;15.00;;
2289;SDS011;1153;47.986;7.898;2022-12-07T03:13:47;36.20;;;16.10;;
2289;SDS011;1153;47.986;7.898;2022-12-07T03:16:20;29.27;;;14.90;;
2289;SDS011;1153;47.986;7.898;2022-12-07T03:21:17;26.97;;;12.90;;
2289;SDS011;1153;47.986;7.898;2022-12-07T03:23:44;28.20;;;13.00;;
2289;SDS011;1153;47.986;7.898;2022-12-07T03:26:12;27.10;;;13.07;;
2289;SDS011;1153;47.986;7.898;2022-12-07T03:28:39;14.87;;;9.77;;
2289;SDS011;1153;47.986;7.898;2022-12-07T03:31:17;13.67;;;9.33;;
2289;SDS011;1153;47.986;7.898;2022-12-07T03:33:53;22.30;;;11.07;;
2289;SDS011;1153;47.986;7.898;2022-12-07T03:41:25;11.00;;;7.40;;
2289;SDS011;1153;47.986;7.898;2022-12-07T03:43:52;7.90;;;6.37;;
2289;SDS011;1153;47.986;7.898;2022-12-07T03:46:20;21.87;;;16.87;;
2289;SDS011;1153;47.986;7.898;2022-12-07T03:51:21;12.97;;;7.67;;
2289;SDS011;1153;47.986;7.898;2022-12-07T03:53:51;11.03;;;7.13;;
2289;SDS011;1153;47.986;7.898;2022-12-07T03:56:18;7.73;;;6.13;;
2289;SDS011;1153;47.986;7.898;2022-12-07T03:58:43;10.40;;;7.50;;
2289;SDS011;1153;47.986;7.898;2022-12-07T04:01:08;8.87;;;6.37;;
2289;SDS011;1153;47.986;7.898;2022-12-07T04:03:34;5.93;;;5.33;;
2289;SDS011;1153;47.986;7.898;2022-12-07T04:05:59;6.63;;;6.00;;
2289;SDS011;1153;47.986;7.898;2022-12-07T04:08:24;15.13;;;6.73;;
2289;SDS011;1153;47.986;7.898;2022-12-07T04:10:49;7.27;;;6.50;;
2289;SDS011;1153;47.986;7.898;2022-12-07T04:13:15;7.50;;;6.37;;
2289;SDS011;1153;47.986;7.898;2022-12-07T04:15:40;17.87;;;8.03;;
2289;SDS011;1153;47.986;7.898;2022-12-07T04:18:05;9.57;;;6.87;;
2289;SDS011;1153;47.986;7.898;2022-12-07T04:20:30;11.30;;;7.87;;
2289;SDS011;1153;47.986;7.898;2022-12-07T04:22:55;9.03;;;6.87;;
2289;SDS011;1153;47.986;7.898;2022-12-07T04:25:21;9.57;;;6.23;;
2289;SDS011;1153;47.986;7.898;2022-12-07T04:27:46;7.27;;;5.53;;
2289;SDS011;1153;47.986;7.898;2022-12-07T04:30:11;11.67;;;7.07;;
2289;SDS011;1153;47.986;7.898;2022-12-07T04:32:36;9.70;;;6.17;;
2289;SDS011;1153;47.986;7.898;2022-12-07T04:35:02;6.87;;;5.50;;
2289;SDS011;1153;47.986;7.898;2022-12-07T04:37:27;7.40;;;5.80;;
2289;SDS011;1153;47.986;7.898;2022-12-07T04:39:53;8.00;;;5.57;;
2289;SDS011;1153;47.986;7.898;2022-12-07T04:42:18;7.40;;;5.70;;
2289;SDS011;1153;47.986;7.898;2022-12-07T04:44:43;10.87;;;6.20;;
2289;SDS011;1153;47.986;7.898;2022-12-07T04:47:09;11.10;;;6.53;;
2289;SDS011;1153;47.986;7.898;2022-12-07T04:49:35;12.83;;;7.13;;
2289;SDS011;1153;47.986;7.898;2022-12-07T04:52:01;7.67;;;6.70;;
2289;SDS011;1153;47.986;7.898;2022-12-07T04:54:26;10.23;;;6.37;;
2289;SDS011;1153;47.986;7.898;2022-12-07T04:56:51;15.17;;;6.90;;
2289;SDS011;1153;47.986;7.898;2022-12-07T04:59:16;7.83;;;6.67;;
2289;SDS011;1153;47.986;7.898;2022-12-07T05:01:42;7.10;;;6.30;;
2289;SDS011;1153;47.986;7.898;2022-12-07T05:04:07;10.10;;;6.20;;
2289;SDS011;1153;47.986;7.898;2022-12-07T05:06:33;8.70;;;6.43;;
2289;SDS011;1153;47.986;7.898;2022-12-07T05:08:58;5.87;;;5.23;;
2289;SDS011;1153;47.986;7.898;2022-12-07T05:11:23;5.67;;;5.20;;
2289;SDS011;1153;47.986;7.898;2022-12-07T05:16:35;4.50;;;3.87;;
2289;SDS011;1153;47.986;7.898;2022-12-07T05:19:01;8.43;;;4.67;;
2289;SDS011;1153;47.986;7.898;2022-12-07T05:21:26;3.93;;;3.20;;
2289;SDS011;1153;47.986;7.898;2022-12-07T05:23:51;3.57;;;2.97;;
2289;SDS011;1153;47.986;7.898;2022-12-07T05:26:16;3.20;;;2.90;;
2289;SDS011;1153;47.986;7.898;2022-12-07T05:28:42;4.27;;;3.70;;
2289;SDS011;1153;47.986;7.898;2022-12-07T05:31:07;3.90;;;3.30;;
2289;SDS011;1153;47.986;7.898;2022-12-07T05:33:32;6.07;;;3.97;;
2289;SDS011;1153;47.986;7.898;2022-12-07T05:35:57;5.67;;;4.50;;
2289;SDS011;1153;47.986;7.898;2022-12-07T05:38:23;6.57;;;5.83;;
2289;SDS011;1153;47.986;7.898;2022-12-07T05:40:48;4.93;;;4.53;;
2289;SDS011;1153;47.986;7.898;2022-12-07T05:43:13;4.90;;;4.50;;
2289;SDS011;1153;47.986;7.898;2022-12-07T05:45:38;5.07;;;4.67;;
2289;SDS011;1153;47.986;7.898;2022-12-07T05:48:03;6.20;;;5.30;;
2289;SDS011;1153;47.986;7.898;2022-12-07T05:50:29;8.40;;;4.93;;
2289;SDS011;1153;47.986;7.898;2022-12-07T05:52:54;4.57;;;4.13;;
2289;SDS011;1153;47.986;7.898;2022-12-07T05:55:19;6.33;;;4.83;;
2289;SDS011;1153;47.986;7.898;2022-12-07T05:57:44;5.23;;;4.63;;
2289;SDS011;1153;47.986;7.898;2022-12-07T06:00:29;5.37;;;4.83;;
2289;SDS011;1153;47.986;7.898;2022-12-07T06:02:55;4.93;;;4.57;;
2289;SDS011;1153;47.986;7.898;2022-12-07T06:05:20;5.20;;;4.70;;
2289;SDS011;1153;47.986;7.898;2022-12-07T06:07:45;3.67;;;3.40;;
2289;SDS011;1153;47.986;7.898;2022-12-07T06:10:10;5.70;;;4.50;;
2289;SDS011;1153;47.986;7.898;2022-12-07T06:12:35;4.43;;;4.10;;
2289;SDS011;1153;47.986;7.898;2022-12-07T06:15:03;4.27;;;3.87;;
2289;SDS011;1153;47.986;7.898;2022-12-07T06:17:28;6.30;;;3.70;;
2289;SDS011;1153;47.986;7.898;2022-12-07T06:19:54;5.87;;;4.93;;
2289;SDS011;1153;47.986;7.898;2022-12-07T06:22:19;5.77;;;3.77;;
2289;SDS011;1153;47.986;7.898;2022-12-07T06:24:44;4.63;;;4.13;;
2289;SDS011;1153;47.986;7.898;2022-12-07T06:27:09;5.53;;;4.93;;
2289;SDS011;1153;47.986;7.898;2022-12-07T06:29:35;6.70;;;5.83;;
2289;SDS011;1153;47.986;7.898;2022-12-07T06:32:00;6.17;;;5.67;;
2289;SDS011;1153;47.986;7.898;2022-12-07T06:34:26;5.63;;;5.13;;
2289;SDS011;1153;47.986;7.898;2022-12-07T06:36:51;4.93;;;4.53;;
2289;SDS011;1153;47.986;7.898;2022-12-07T06:39:18;5.73;;;5.23;;
2289;SDS011;1153;47.986;7.898;2022-12-07T06:41:44;4.87;;;4.57;;
2289;SDS011;1153;47.986;7.898;2022-12-07T06:44:09;4.57;;;4.17;;
2289;SDS011;1153;47.986;7.898;2022-12-07T06:46:34;5.43;;;5.00;;
2289;SDS011;1153;47.986;7.898;2022-12-07T06:49:00;4.47;;;2.77;;
2289;SDS011;1153;47.986;7.898;2022-12-07T06:51:25;10.93;;;9.93;;
2289;SDS011;1153;47.986;7.898;2022-12-07T06:53:51;12.00;;;10.80;;
2289;SDS011;1153;47.986;7.898;2022-12-07T06:56:16;7.30;;;5.73;;
2289;SDS011;1153;47.986;7.898;2022-12-07T06:58:41;5.07;;;4.67;;
2289;SDS011;1153;47.986;7.898;2022-12-07T07:01:10;6.60;;;4.70;;
2289;SDS011;1153;47.986;7.898;2022-12-07T07:03:35;5.23;;;4.83;;
2289;SDS011;1153;47.986;7.898;2022-12-07T07:06:00;5.13;;;4.73;;
2289;SDS011;1153;47.986;7.898;2022-12-07T07:08:26;5.40;;;4.43;;
2289;SDS011;1153;47.986;7.898;2022-12-07T07:10:51;5.97;;;4.33;;
2289;SDS011;1153;47.986;7.898;2022-12-07T07:13:16;7.37;;;4.30;;
2289;SDS011;1153;47.986;7.898;2022-12-07T07:15:41;15.53;;;6.37;;
2289;SDS011;1153;47.986;7.898;2022-12-07T07:18:07;9.80;;;6.03;;
2289;SDS011;1153;47.986;7.898;2022-12-07T07:20:32;5.20;;;4.70;;
2289;SDS011;1153;47.986;7.898;2022-12-07T07:22:57;6.80;;;4.80;;
2289;SDS011;1153;47.986;7.898;2022-12-07T07:25:22;6.37;;;4.57;;
2289;SDS011;1153;47.986;7.898;2022-12-07T07:27:47;5.53;;;4.90;;
2289;SDS011;1153;47.986;7.898;2022-12-07T07:30:13;4.80;;;4.50;;
2289;SDS011;1153;47.986;7.898;2022-12-07T07:32:38;4.77;;;4.37;;
2289;SDS011;1153;47.986;7.898;2022-12-07T07:35:03;7.53;;;4.63;;
2289;SDS011;1153;47.986;7.898;2022-12-07T07:37:29;8.67;;;5.93;;
2289;SDS011;1153;47.986;7.898;2022-12-07T07:39:54;10.03;;;4.67;;
2289;SDS011;1153;47.986;7.898;2022-12-07T07:42:19;4.53;;;4.13;;
2289;SDS011;1153;47.986;7.898;2022-12-07T07:44:44;4.67;;;4.37;;
2289;SDS011;1153;47.986;7.898;2022-12-07T07:47:10;5.90;;;5.37;;
2289;SDS011;1153;47.986;7.898;2022-12-07T07:49:35;6.03;;;5.47;;
2289;SDS011;1153;47.986;7.898;2022-12-07T07:52:00;8.20;;;5.60;;
2289;SDS011;1153;47.986;7.898;2022-12-07T07:54:26;6.00;;;5.40;;
2289;SDS011;1153;47.986;7.898;2022-12-07T07:56:52;6.13;;;4.10;;
2289;SDS011;1153;47.986;7.898;2022-12-07T07:59:17;6.47;;;5.67;;
2289;SDS011;1153;47.986;7.898;2022-12-07T08:01:42;9.57;;;7.37;;
2289;SDS011;1153;47.986;7.898;2022-12-07T08:04:07;10.50;;;6.77;;
2289;SDS011;1153;47.986;7.898;2022-12-07T08:06:32;12.83;;;8.70;;
2289;SDS011;1153;47.986;7.898;2022-12-07T08:08:58;4.87;;;4.57;;
2289;SDS011;1153;47.986;7.898;2022-12-07T08:11:23;4.30;;;4.00;;
2289;SDS011;1153;47.986;7.898;2022-12-07T08:13:49;8.83;;;4.20;;
2289;SDS011;1153;47.986;7.898;2022-12-07T08:16:14;4.00;;;3.70;;
2289;SDS011;1153;47.986;7.898;2022-12-07T08:18:40;7.73;;;4.00;;
2289;SDS011;1153;47.986;7.898;2022-12-07T08:21:06;6.03;;;5.17;;
2289;SDS011;1153;47.986;7.898;2022-12-07T08:23:31;3.40;;;3.10;;
2289;SDS011;1153;47.986;7.898;2022-12-07T08:26:00;3.83;;;3.53;;
2289;SDS011;1153;47.986;7.898;2022-12-07T08:28:26;4.00;;;3.60;;
2289;SDS011;1153;47.986;7.898;2022-12-07T08:30:51;4.50;;;3.17;;
2289;SDS011;1153;47.986;7.898;2022-12-07T08:33:16;3.17;;;2.47;;
2289;SDS011;1153;47.986;7.898;2022-12-07T08:35:41;3.70;;;3.40;;
2289;SDS011;1153;47.986;7.898;2022-12-07T08:38:07;4.63;;;4.23;;
2289;SDS011;1153;47.986;7.898;2022-12-07T08:40:32;5.70;;;4.50;;
2289;SDS011;1153;47.986;7.898;2022-12-07T08:42:57;5.97;;;5.43;;
2289;SDS011;1153;47.986;7.898;2022-12-07T08:45:22;4.57;;;4.17;;
2289;SDS011;1153;47.986;7.898;2022-12-07T08:47:58;5.93;;;4.50;;
2289;SDS011;1153;47.986;7.898;2022-12-07T08:50:26;7.90;;;5.47;;
2289;SDS011;1153;47.986;7.898;2022-12-07T08:52:52;8.47;;;5.97;;
2289;SDS011;1153;47.986;7.898;2022-12-07T08:55:19;9.40;;;6.03;;
2289;SDS011;1153;47.986;7.898;2022-12-07T08:57:44;6.53;;;5.60;;
2289;SDS011;1153;47.986;7.898;2022-12-07T09:00:10;6.20;;;5.70;;
2289;SDS011;1153;47.986;7.898;2022-12-07T09:02:35;8.60;;;6.53;;
2289;SDS011;1153;47.986;7.898;2022-12-07T09:05:00;6.80;;;5.37;;
2289;SDS011;1153;47.986;7.898;2022-12-07T09:07:26;5.60;;;5.10;;
2289;SDS011;1153;47.986;7.898;2022-12-07T09:09:51;5.70;;;5.20;;
2289;SDS011;1153;47.986;7.898;2022-12-07T09:12:16;8.27;;;6.30;;
2289;SDS011;1153;47.986;7.898;2022-12-07T09:14:41;7.57;;;5.30;;
2289;SDS011;1153;47.986;7.898;2022-12-07T09:17:07;14.17;;;6.43;;
2289;SDS011;1153;47.986;7.898;2022-12-07T09:19:32;19.40;;;5.13;;
2289;SDS011;1153;47.986;7.898;2022-12-07T09:21:58;7.40;;;4.40;;
2289;SDS011;1153;47.986;7.898;2022-12-07T09:24:23;5.47;;;5.07;;
2289;SDS011;1153;47.986;7.898;2022-12-07T09:26:48;5.80;;;5.40;;
2289;SDS011;1153;47.986;7.898;2022-12-07T09:29:14;5.93;;;5.27;;
2289;SDS011;1153;47.986;7.898;2022-12-07T09:31:39;7.30;;;5.47;;
2289;SDS011;1153;47.986;7.898;2022-12-07T09:34:04;4.30;;;3.90;;
2289;SDS011;1153;47.986;7.898;2022-12-07T09:36:30;4.13;;;3.67;;
2289;SDS011;1153;47.986;7.898;2022-12-07T09:38:55;4.97;;;4.47;;
2289;SDS011;1153;47.986;7.898;2022-12-07T09:41:21;6.83;;;4.80;;
2289;SDS011;1153;47.986;7.898;2022-12-07T09:43:47;4.40;;;4.00;;
2289;SDS011;1153;47.986;7.898;2022-12-07T09:46:13;3.43;;;3.13;;
2289;SDS011;1153;47.986;7.898;2022-12-07T09:48:39;3.90;;;3.50;;
2289;SDS011;1153;47.986;7.898;2022-12-07T09:51:18;3.90;;;3.60;;
2289;SDS011;1153;47.986;7.898;2022-12-07T09:53:45;3.27;;;2.97;;
2289;SDS011;1153;47.986;7.898;2022-12-07T09:56:13;2.50;;;2.40;;
2289;SDS011;1153;47.986;7.898;2022-12-07T09:58:39;3.07;;;2.87;;
2289;SDS011;1153;47.986;7.898;2022-12-07T10:01:09;3.53;;;3.27;;
2289;SDS011;1153;47.986;7.898;2022-12-07T10:03:40;3.23;;;3.03;;
2289;SDS011;1153;47.986;7.898;2022-12-07T10:06:06;2.43;;;2.33;;
2289;SDS011;1153;47.986;7.898;2022-12-07T10:08:32;3.73;;;3.43;;
2289;SDS011;1153;47.986;7.898;2022-12-07T10:10:57;3.10;;;2.80;;
2289;SDS011;1153;47.986;7.898;2022-12-07T10:16:00;2.43;;;2.33;;
2289;SDS011;1153;47.986;7.898;2022-12-07T10:18:26;2.97;;;2.77;;
2289;SDS011;1153;47.986;7.898;2022-12-07T10:23:27;4.00;;;3.70;;
2289;SDS011;1153;47.986;7.898;2022-12-07T10:25:52;4.00;;;3.70;;
2289;SDS011;1153;47.986;7.898;2022-12-07T10:28:20;2.87;;;2.67;;
2289;SDS011;1153;47.986;7.898;2022-12-07T10:30:57;4.03;;;3.07;;
2289;SDS011;1153;47.986;7.898;2022-12-07T10:35:59;2.97;;;2.80;;
2289;SDS011;1153;47.986;7.898;2022-12-07T10:38:24;2.57;;;2.47;;
2289;SDS011;1153;47.986;7.898;2022-12-07T10:40:54;2.70;;;2.50;;
2289;SDS011;1153;47.986;7.898;2022-12-07T10:43:27;2.50;;;2.30;;
2289;SDS011;1153;47.986;7.898;2022-12-07T10:46:01;2.40;;;2.30;;
2289;SDS011;1153;47.986;7.898;2022-12-07T10:51:17;1.40;;;1.30;;
2289;SDS011;1153;47.986;7.898;2022-12-07T10:53:51;2.10;;;2.00;;
2289;SDS011;1153;47.986;7.898;2022-12-07T11:11:38;4.20;;;3.90;;
2289;SDS011;1153;47.986;7.898;2022-12-07T11:14:10;1.53;;;1.43;;
2289;SDS011;1153;47.986;7.898;2022-12-07T11:22:14;1.20;;;0.90;;
2289;SDS011;1153;47.986;7.898;2022-12-07T11:24:22;2.43;;;1.47;;
2289;SDS011;1153;47.986;7.898;2022-12-07T11:30:02;1.33;;;1.23;;
2289;SDS011;1153;47.986;7.898;2022-12-07T11:34:46;1.77;;;1.13;;
2289;SDS011;1153;47.986;7.898;2022-12-07T11:37:15;1.40;;;1.30;;
2289;SDS011;1153;47.986;7.898;2022-12-07T11:39:44;1.43;;;1.00;;
2289;SDS011;1153;47.986;7.898;2022-12-07T11:42:13;1.30;;;0.93;;
2289;SDS011;1153;47.986;7.898;2022-12-07T11:50:03;1.03;;;0.93;;
2289;SDS011;1153;47.986;7.898;2022-12-07T11:52:40;1.00;;;0.70;;
2289;SDS011;1153;47.986;7.898;2022-12-07T11:55:14;0.90;;;0.60;;
2289;SDS011;1153;47.986;7.898;2022-12-07T11:57:42;1.03;;;0.77;;
2289;SDS011;1153;47.986;7.898;2022-12-07T12:00:13;1.10;;;1.00;;
2289;SDS011;1153;47.986;7.898;2022-12-07T12:02:58;1.20;;;0.77;;
2289;SDS011;1153;47.986;7.898;2022-12-07T12:05:25;1.07;;;0.97;;
2289;SDS011;1153;47.986;7.898;2022-12-07T12:10:28;1.10;;;0.90;;
2289;SDS011;1153;47.986;7.898;2022-12-07T12:13:05;1.30;;;0.70;;
2289;SDS011;1153;47.986;7.898;2022-12-07T12:21:07;1.33;;;0.97;;
2289;SDS011;1153;47.986;7.898;2022-12-07T12:23:44;1.10;;;0.70;;
2289;SDS011;1153;47.986;7.898;2022-12-07T12:26:15;0.97;;;0.70;;
2289;SDS011;1153;47.986;7.898;2022-12-07T12:33:31;2.37;;;1.00;;
2289;SDS011;1153;47.986;7.898;2022-12-07T12:38:50;1.07;;;0.80;;
2289;SDS011;1153;47.986;7.898;2022-12-07T12:44:01;1.07;;;0.83;;
2289;SDS011;1153;47.986;7.898;2022-12-07T12:51:39;1.40;;;1.30;;
2289;SDS011;1153;47.986;7.898;2022-12-07T12:54:08;1.60;;;1.50;;
2289;SDS011;1153;47.986;7.898;2022-12-07T12:56:40;10.63;;;1.60;;
2289;SDS011;1153;47.986;7.898;2022-12-07T12:59:24;4.13;;;1.70;;
2289;SDS011;1153;47.986;7.898;2022-12-07T13:01:50;1.47;;;1.33;;
2289;SDS011;1153;47.986;7.898;2022-12-07T13:06:45;1.83;;;1.73;;
2289;SDS011;1153;47.986;7.898;2022-12-07T13:09:21;1.83;;;1.73;;
2289;SDS011;1153;47.986;7.898;2022-12-07T13:11:47;2.07;;;1.97;;
2289;SDS011;1153;47.986;7.898;2022-12-07T13:16:56;1.40;;;1.20;;
2289;SDS011;1153;47.986;7.898;2022-12-07T13:22:28;1.87;;;1.53;;
2289;SDS011;1153;47.986;7.898;2022-12-07T13:24:54;1.50;;;1.40;;
2289;SDS011;1153;47.986;7.898;2022-12-07T13:27:21;1.67;;;1.57;;
2289;SDS011;1153;47.986;7.898;2022-12-07T13:29:46;1.63;;;1.30;;
2289;SDS011;1153;47.986;7.898;2022-12-07T13:32:23;1.47;;;1.37;;
2289;SDS011;1153;47.986;7.898;2022-12-07T13:34:48;2.50;;;1.00;;
2289;SDS011;1153;47.986;7.898;2022-12-07T13:37:26;1.27;;;1.10;;
2289;SDS011;1153;47.986;7.898;2022-12-07T13:39:53;1.30;;;1.20;;
2289;SDS011;1153;47.986;7.898;2022-12-07T13:42:31;1.60;;;1.30;;
2289;SDS011;1153;47.986;7.898;2022-12-07T13:44:58;1.10;;;0.80;;
2289;SDS011;1153;47.986;7.898;2022-12-07T13:49:53;1.17;;;0.70;;
2289;SDS011;1153;47.986;7.898;2022-12-07T13:52:23;1.67;;;0.80;;
2289;SDS011;1153;47.986;7.898;2022-12-07T13:54:54;0.90;;;0.50;;
2289;SDS011;1153;47.986;7.898;2022-12-07T13:57:20;1.10;;;0.60;;
2289;SDS011;1153;47.986;7.898;2022-12-07T13:59:46;1.20;;;0.60;;
2289;SDS011;1153;47.986;7.898;2022-12-07T14:02:18;0.90;;;0.70;;
2289;SDS011;1153;47.986;7.898;2022-12-07T14:04:43;1.20;;;0.80;;
2289;SDS011;1153;47.986;7.898;2022-12-07T14:09:52;1.83;;;1.43;;
2289;SDS011;1153;47.986;7.898;2022-12-07T14:12:18;2.17;;;1.43;;
2289;SDS011;1153;47.986;7.898;2022-12-07T14:14:46;4.83;;;1.63;;
2289;SDS011;1153;47.986;7.898;2022-12-07T14:17:16;2.40;;;1.93;;
2289;SDS011;1153;47.986;7.898;2022-12-07T14:22:21;2.70;;;2.03;;
2289;SDS011;1153;47.986;7.898;2022-12-07T14:24:47;3.57;;;2.97;;
2289;SDS011;1153;47.986;7.898;2022-12-07T14:27:22;2.17;;;1.97;;
2289;SDS011;1153;47.986;7.898;2022-12-07T14:29:50;2.43;;;1.53;;
2289;SDS011;1153;47.986;7.898;2022-12-07T14:32:26;2.03;;;1.63;;
2289;SDS011;1153;47.986;7.898;2022-12-07T14:37:19;1.40;;;1.30;;
2289;SDS011;1153;47.986;7.898;2022-12-07T14:39:44;2.10;;;1.57;;
2289;SDS011;1153;47.986;7.898;2022-12-07T14:42:10;1.73;;;1.63;;
2289;SDS011;1153;47.986;7.898;2022-12-07T14:44:35;4.13;;;1.60;;
2289;SDS011;1153;47.986;7.898;2022-12-07T14:47:00;3.33;;;1.87;;
2289;SDS011;1153;47.986;7.898;2022-12-07T14:49:25;1.97;;;1.77;;
2289;SDS011;1153;47.986;7.898;2022-12-07T14:51:50;3.40;;;2.60;;
2289;SDS011;1153;47.986;7.898;2022-12-07T14:54:17;2.40;;;2.20;;
2289;SDS011;1153;47.986;7.898;2022-12-07T14:56:43;2.60;;;2.40;;
2289;SDS011;1153;47.986;7.898;2022-12-07T14:59:09;2.80;;;2.50;;
2289;SDS011;1153;47.986;7.898;2022-12-07T15:01:34;2.90;;;2.70;;
2289;SDS011;1153;47.986;7.898;2022-12-07T15:03:59;4.13;;;3.83;;
2289;SDS011;1153;47.986;7.898;2022-12-07T15:06:24;1.97;;;1.87;;
2289;SDS011;1153;47.986;7.898;2022-12-07T15:08:49;2.77;;;2.57;;
2289;SDS011;1153;47.986;7.898;2022-12-07T15:11:15;3.00;;;2.80;;
2289;SDS011;1153;47.986;7.898;2022-12-07T15:13:41;2.40;;;2.20;;
2289;SDS011;1153;47.986;7.898;2022-12-07T15:16:25;2.20;;;2.00;;
2289;SDS011;1153;47.986;7.898;2022-12-07T15:18:50;2.60;;;2.40;;
2289;SDS011;1153;47.986;7.898;2022-12-07T15:21:16;1.77;;;1.67;;
2289;SDS011;1153;47.986;7.898;2022-12-07T15:23:42;2.97;;;2.70;;
2289;SDS011;1153;47.986;7.898;2022-12-07T15:26:07;2.00;;;1.90;;
2289;SDS011;1153;47.986;7.898;2022-12-07T15:28:34;3.60;;;2.00;;
2289;SDS011;1153;47.986;7.898;2022-12-07T15:30:59;5.60;;;1.70;;
2289;SDS011;1153;47.986;7.898;2022-12-07T15:33:24;3.00;;;2.80;;
2289;SDS011;1153;47.986;7.898;2022-12-07T15:35:50;2.40;;;2.20;;
2289;SDS011;1153;47.986;7.898;2022-12-07T15:38:15;3.20;;;2.10;;
2289;SDS011;1153;47.986;7.898;2022-12-07T15:40:40;2.93;;;2.67;;
2289;SDS011;1153;47.986;7.898;2022-12-07T15:43:05;3.50;;;2.67;;
2289;SDS011;1153;47.986;7.898;2022-12-07T15:45:50;2.97;;;2.77;;
2289;SDS011;1153;47.986;7.898;2022-12-07T15:48:16;2.90;;;2.53;;
2289;SDS011;1153;47.986;7.898;2022-12-07T15:50:41;2.50;;;2.30;;
2289;SDS011;1153;47.986;7.898;2022-12-07T15:53:06;3.13;;;2.93;;
2289;SDS011;1153;47.986;7.898;2022-12-07T15:55:32;3.43;;;2.47;;
2289;SDS011;1153;47.986;7.898;2022-12-07T15:57:57;2.93;;;2.73;;
2289;SDS011;1153;47.986;7.898;2022-12-07T16:00:22;2.77;;;2.57;;
2289;SDS011;1153;47.986;7.898;2022-12-07T16:02:47;2.53;;;2.27;;
2289;SDS011;1153;47.986;7.898;2022-12-07T16:05:12;2.57;;;2.30;;
2289;SDS011;1153;47.986;7.898;2022-12-07T16:07:38;3.37;;;3.07;;
2289;SDS011;1153;47.986;7.898;2022-12-07T16:10:03;5.10;;;3.70;;
2289;SDS011;1153;47.986;7.898;2022-12-07T16:12:28;3.40;;;2.77;;
2289;SDS011;1153;47.986;7.898;2022-12-07T16:14:54;3.60;;;3.23;;
2289;SDS011;1153;47.986;7.898;2022-12-07T16:17:19;5.40;;;3.70;;
2289;SDS011;1153;47.986;7.898;2022-12-07T16:19:44;3.53;;;3.20;;
2289;SDS011;1153;47.986;7.898;2022-12-07T16:22:09;2.97;;;2.67;;
2289;SDS011;1153;47.986;7.898;2022-12-07T16:24:34;3.10;;;2.80;;
2289;SDS011;1153;47.986;7.898;2022-12-07T16:26:59;2.10;;;1.90;;
2289;SDS011;1153;47.986;7.898;2022-12-07T16:29:25;2.67;;;2.47;;
2289;SDS011;1153;47.986;7.898;2022-12-07T16:31:51;1.90;;;1.70;;
2289;SDS011;1153;47.986;7.898;2022-12-07T16:34:16;1.57;;;1.47;;
2289;SDS011;1153;47.986;7.898;2022-12-07T16:36:41;5.50;;;2.70;;
2289;SDS011;1153;47.986;7.898;2022-12-07T16:39:06;2.73;;;2.50;;
2289;SDS011;1153;47.986;7.898;2022-12-07T16:41:32;4.57;;;3.27;;
2289;SDS011;1153;47.986;7.898;2022-12-07T16:43:57;4.80;;;2.83;;
2289;SDS011;1153;47.986;7.898;2022-12-07T16:46:26;2.90;;;2.70;;
2289;SDS011;1153;47.986;7.898;2022-12-07T16:48:51;3.20;;;3.00;;
2289;SDS011;1153;47.986;7.898;2022-12-07T16:51:17;4.17;;;3.87;;
2289;SDS011;1153;47.986;7.898;2022-12-07T16:53:42;7.50;;;5.00;;
2289;SDS011;1153;47.986;7.898;2022-12-07T16:56:11;5.53;;;5.03;;
2289;SDS011;1153;47.986;7.898;2022-12-07T16:58:36;7.83;;;5.97;;
2289;SDS011;1153;47.986;7.898;2022-12-07T17:01:14;8.37;;;5.73;;
2289;SDS011;1153;47.986;7.898;2022-12-07T17:03:40;18.30;;;9.30;;
2289;SDS011;1153;47.986;7.898;2022-12-07T17:06:18;17.27;;;10.17;;